Varva — A8UP7 — position and weather

sailwx.info

Track history (hours):
 
Tides and Currents Weather Stations Pressure Air Temp Water Temp Dewpoint Dewpoint Depression Visibility Wind Speed Wind Dir Waves Ship Positions

Varva

Last reported at 2015-Aug-15 05:32 UTC. Time now 2015-Sep-02 17:04 UTC.
Position N 30°34' E 032°18'.
Warning: this ship's position is 18 days out of date.

Length 224 m; draft 12.4 m.

Type: Cargo ship. MMSI: 636014536.

Date/timePositionNaut miles runAvg speedWind from/ knotsBaromVisibWave heightAir tempDewpointWater temp
2015-Aug-15 05:32N 30°34' E 032°18'46 7.7
2015-Aug-14 23:33N 31°20' E 032°22'6 5.5
2015-Aug-14 22:33N 31°23' E 032°17'0 0.1
2015-Aug-14 19:04N 31°23' E 032°17'0 0.0
2015-Aug-13 19:33N 31°23' E 032°17'0 0.0
2015-Aug-13 17:21N 31°23' E 032°17'0 0.0
2015-Aug-13 14:06N 31°23' E 032°17'  
2015-Aug-09 02:18N 31°23' E 032°17'0 0.1
2015-Aug-09 01:30N 31°23' E 032°17'1 0.1
2015-Aug-08 16:31N 31°23' E 032°17'6 6.7
2015-Aug-08 15:33N 31°29' E 032°15'10 8.6
2015-Aug-08 14:21N 31°37' E 032°06'29 7.6
2015-Aug-08 10:32N 31°57' E 031°41'16 8.1
2015-Aug-08 08:33N 32°08' E 031°28'7 6.8
2015-Aug-08 07:33N 32°13' E 031°22'13710.1
2015-Aug-07 18:03N 33°55' E 029°33'510.7
2015-Aug-07 17:34N 33°59' E 029°29'1510.4
2015-Aug-07 16:05N 34°10' E 029°17'2510.0
2015-Aug-07 13:33N 34°30' E 028°56'2510.7
2015-Aug-07 11:11N 34°49' E 028°36'710.9
2015-Aug-07 10:33N 34°54' E 028°31'6711.0
2015-Aug-07 04:31N 35°43' E 027°36'5610.8
2015-Aug-06 23:18N 36°26' E 026°50'1310.4
2015-Aug-06 22:04N 36°38' E 026°45'510.2
2015-Aug-06 21:33N 36°43' E 026°43'1110.4
2015-Aug-06 20:30N 36°53' E 026°39'1010.5
2015-Aug-06 19:31N 37°03' E 026°35'2110.5
2015-Aug-06 17:33N 37°16' E 026°14'1310.2
2015-Aug-06 16:17N 37°23' E 026°01'7 9.9
2015-Aug-06 15:34N 37°28' E 025°54'10 9.9
2015-Aug-06 14:33N 37°36' E 025°48'1010.3
2015-Aug-06 13:33N 37°47' E 025°46'  
Track history (hours):
 
Tides and Currents Weather Stations Pressure Air Temp Water Temp Dewpoint Dewpoint Depression Visibility Wind Speed Wind Dir Waves Ship Positions

Varva

Last reported at 2015-Aug-15 05:32 UTC. Time now 2015-Sep-02 17:04 UTC.
Position N 30°34' E 032°18'.
Warning: this ship's position is 18 days out of date.

Length 224 m; draft 12.4 m.

Type: Cargo ship. MMSI: 636014536.

Date/timePositionNaut miles runAvg speedWind from/ knotsBaromVisibWave heightAir tempDewpointWater temp
2015-Aug-15 05:32N 30°34' E 032°18'46 7.7
2015-Aug-14 23:33N 31°20' E 032°22'6 5.5
2015-Aug-14 22:33N 31°23' E 032°17'0 0.1
2015-Aug-14 19:04N 31°23' E 032°17'0 0.0
2015-Aug-13 19:33N 31°23' E 032°17'0 0.0
2015-Aug-13 17:21N 31°23' E 032°17'0 0.0
2015-Aug-13 14:06N 31°23' E 032°17'  
2015-Aug-09 02:18N 31°23' E 032°17'0 0.1
2015-Aug-09 01:30N 31°23' E 032°17'1 0.1
2015-Aug-08 16:31N 31°23' E 032°17'6 6.7
2015-Aug-08 15:33N 31°29' E 032°15'10 8.6
2015-Aug-08 14:21N 31°37' E 032°06'29 7.6
2015-Aug-08 10:32N 31°57' E 031°41'16 8.1
2015-Aug-08 08:33N 32°08' E 031°28'7 6.8
2015-Aug-08 07:33N 32°13' E 031°22'13710.1
2015-Aug-07 18:03N 33°55' E 029°33'510.7
2015-Aug-07 17:34N 33°59' E 029°29'1510.4
2015-Aug-07 16:05N 34°10' E 029°17'2510.0
2015-Aug-07 13:33N 34°30' E 028°56'2510.7
2015-Aug-07 11:11N 34°49' E 028°36'710.9
2015-Aug-07 10:33N 34°54' E 028°31'6711.0
2015-Aug-07 04:31N 35°43' E 027°36'5610.8
2015-Aug-06 23:18N 36°26' E 026°50'1310.4
2015-Aug-06 22:04N 36°38' E 026°45'510.2
2015-Aug-06 21:33N 36°43' E 026°43'1110.4
2015-Aug-06 20:30N 36°53' E 026°39'1010.5
2015-Aug-06 19:31N 37°03' E 026°35'2110.5
2015-Aug-06 17:33N 37°16' E 026°14'1310.2
2015-Aug-06 16:17N 37°23' E 026°01'7 9.9
2015-Aug-06 15:34N 37°28' E 025°54'10 9.9
2015-Aug-06 14:33N 37°36' E 025°48'1010.3
2015-Aug-06 13:33N 37°47' E 025°46'  

Dump ship's entire track history